Time;durP1;ratioP1;P1;durP2;ratioP2;P2;SDS_P1;SDS_P2;PMS_P1;PMS_P2;Temp;Humidity;BMP_temperature;BMP_pressure;BME280_temperature;BME280_humidity;BME280_pressure;Samples;Min_cycle;Max_cycle;Signal;HPM_P1;HPM_P2
2021/11/04 00:01:43;;;;;;;7.35;4.05;;;;;;;12.73;73.73;98479.56;4955088;29;20557;-62
2021/11/04 00:04:17;;;;;;;6.75;4.32;;;;;;;12.77;74.12;98483.72;4955466;29;20051;-62
2021/11/04 00:06:50;;;;;;;5.75;3.50;;;;;;;12.78;74.47;98485.41;4955398;29;20075;-62
2021/11/04 00:09:19;;;;;;;5.95;3.78;;;;;;;12.83;74.26;98485.25;4954941;29;20149;-62
2021/11/04 00:11:52;;;;;;;6.72;3.90;;;;;;;12.84;74.31;98467.28;4955104;29;20089;-62
2021/11/04 00:14:21;;;;;;;8.00;4.40;;;;;;;12.84;74.78;98477.53;4955322;29;20051;-62
2021/11/04 00:16:55;;;;;;;8.45;4.60;;;;;;;12.86;74.79;98452.69;4954968;29;20051;-62
2021/11/04 00:19:29;;;;;;;6.80;4.25;;;;;;;12.90;74.88;98446.63;4955135;29;20044;-62
2021/11/04 00:22:02;;;;;;;8.68;4.10;;;;;;;12.88;74.89;98452.69;4955219;29;20055;-62
2021/11/04 00:24:32;;;;;;;6.72;4.05;;;;;;;12.84;75.15;98444.22;4955258;29;20102;-62
2021/11/04 00:27:07;;;;;;;;;;;;;;;12.87;75.17;98436.47;4955692;29;20504;-62
2021/11/04 00:29:36;;;;;;;8.43;4.20;;;;;;;12.83;75.25;98419.53;4955036;29;20352;-62
2021/11/04 00:32:09;;;;;;;7.75;4.03;;;;;;;12.87;75.39;98426.22;4954798;29;20059;-62
2021/11/04 00:34:39;;;;;;;7.53;4.13;;;;;;;12.82;75.98;98417.00;4955089;29;20151;-62
2021/11/04 00:37:12;;;;;;;5.70;3.55;;;;;;;12.79;76.23;98392.31;4956712;28;20130;-62
2021/11/04 00:39:44;;;;;;;5.85;3.35;;;;;;;12.85;76.28;98397.28;4958239;29;20043;-62
2021/11/04 00:42:17;;;;;;;6.80;3.60;;;;;;;12.88;76.51;98391.22;4958514;29;20103;-62
2021/11/04 00:44:46;;;;;;;6.15;3.63;;;;;;;12.91;76.69;98402.19;4958011;29;20425;-62
2021/11/04 00:47:19;;;;;;;7.93;4.28;;;;;;;12.98;76.87;98393.44;4958017;29;20066;-62
2021/11/04 00:49:49;;;;;;;9.82;4.35;;;;;;;12.93;76.84;98399.59;4957991;29;20063;-62
2021/11/04 00:52:22;;;;;;;6.75;3.55;;;;;;;12.89;77.10;98405.69;4957996;29;20061;-61
2021/11/04 00:54:51;;;;;;;6.60;3.90;;;;;;;12.89;77.02;98409.09;4957954;29;20071;-62
2021/11/04 00:57:24;;;;;;;5.85;3.70;;;;;;;12.69;77.19;98385.84;4957850;29;20059;-62
2021/11/04 00:59:59;;;;;;;7.95;4.03;;;;;;;12.69;77.82;98386.66;4957991;29;20134;-62
2021/11/04 01:02:31;;;;;;;6.97;4.18;;;;;;;12.54;77.94;98381.16;4957767;29;20564;-61
2021/11/04 01:05:06;;;;;;;7.55;4.32;;;;;;;12.62;78.26;98384.34;4958040;29;20057;-62
2021/11/04 01:07:38;;;;;;;7.47;4.57;;;;;;;12.58;78.49;98377.63;4958285;29;20138;-62
2021/11/04 01:10:09;;;;;;;11.45;5.50;;;;;;;12.54;78.62;98365.81;4958120;29;20473;-62
2021/11/04 01:12:41;;;;;;;9.70;5.53;;;;;;;12.40;78.46;98363.66;4957884;29;20490;-62
2021/11/04 01:15:11;;;;;;;9.75;4.85;;;;;;;12.45;79.01;98371.19;4957875;29;20073;-62
2021/11/04 01:17:44;;;;;;;9.55;5.35;;;;;;;12.45;79.09;98376.31;4957492;29;20043;-62
2021/11/04 01:20:19;;;;;;;8.48;5.00;;;;;;;12.44;79.09;98343.91;4957815;29;20051;-61
2021/11/04 01:22:52;;;;;;;8.25;4.90;;;;;;;12.64;78.95;98367.22;4957517;29;20576;-62
2021/11/04 01:25:24;;;;;;;9.95;4.72;;;;;;;12.47;79.22;98354.06;4957366;29;20067;-62
2021/11/04 01:27:57;;;;;;;8.00;4.82;;;;;;;12.24;79.28;98346.25;4957295;29;20051;-62
2021/11/04 01:30:45;;;;;;;7.78;5.40;;;;;;;12.18;80.04;98336.16;4656840;23;20043;-67
2021/11/04 01:33:15;;;;;;;8.95;4.90;;;;;;;12.27;79.89;98341.84;4938703;29;20393;-63
2021/11/04 01:35:46;;;;;;;9.63;4.80;;;;;;;12.28;80.10;98312.00;4938433;29;20413;-63
2021/11/04 01:38:19;;;;;;;7.97;4.35;;;;;;;12.21;80.02;98296.00;4938383;29;20484;-63
2021/11/04 01:40:52;;;;;;;8.13;4.10;;;;;;;12.21;80.27;98306.25;4937979;29;20052;-63
2021/11/04 01:43:24;;;;;;;5.30;3.20;;;;;;;12.32;80.20;98304.19;4938291;29;20118;-64
2021/11/04 01:45:57;;;;;;;5.45;3.28;;;;;;;12.55;80.00;98303.47;4937966;29;20056;-63
2021/11/04 01:48:29;;;;;;;6.57;3.55;;;;;;;12.55;79.58;98283.00;4937438;29;20055;-63
2021/11/04 01:51:00;;;;;;;7.13;3.35;;;;;;;12.66;79.49;98283.53;4937766;29;20135;-63
2021/11/04 01:53:30;;;;;;;5.93;3.60;;;;;;;12.65;79.22;98297.19;4937817;29;20131;-63
2021/11/04 01:55:59;;;;;;;6.13;3.83;;;;;;;12.60;78.80;98281.16;4937769;29;20036;-63
2021/11/04 01:58:31;;;;;;;8.32;3.60;;;;;;;12.63;78.90;98288.75;4937621;29;20139;-63
2021/11/04 02:01:00;;;;;;;5.63;3.50;;;;;;;12.65;78.48;98289.53;4938210;29;20134;-63
2021/11/04 02:03:34;;;;;;;;;;;;;;;12.61;78.35;98285.38;4938836;29;20449;-63
2021/11/04 02:06:12;;;;;;;5.38;3.42;;;;;;;12.59;78.39;98270.09;4937848;29;20404;-63
2021/11/04 02:08:52;;;;;;;5.88;3.42;;;;;;;12.56;78.41;98261.66;4937811;29;20052;-63
2021/11/04 02:11:25;;;;;;;;;;;;;;;12.74;78.37;98276.44;4937983;29;20048;-63
2021/11/04 02:13:59;;;;;;;5.10;3.22;;;;;;;12.80;77.97;98271.13;4937412;29;19933;-63
2021/11/04 02:16:31;;;;;;;5.32;2.95;;;;;;;12.84;78.22;98256.50;4937666;29;20557;-63
2021/11/04 02:19:05;;;;;;;5.97;3.65;;;;;;;12.89;78.17;98281.06;4937283;29;20047;-63
2021/11/04 02:21:43;;;;;;;7.78;4.05;;;;;;;13.01;77.90;98288.34;4937317;29;20561;-63
2021/11/04 02:24:32;;;;;;;6.80;3.10;;;;;;;13.08;77.36;98271.91;4937523;29;20047;-63
2021/11/04 02:27:04;;;;;;;4.40;2.45;;;;;;;13.13;77.60;98284.56;4937534;29;20063;-63
2021/11/04 02:29:35;;;;;;;7.05;3.15;;;;;;;13.13;77.08;98284.56;4937105;29;20051;-63
2021/11/04 02:32:05;;;;;;;5.30;3.05;;;;;;;13.12;77.02;98277.78;4958779;28;20073;-64
2021/11/04 02:34:37;;;;;;;5.97;3.28;;;;;;;13.14;76.83;98287.09;4975774;28;20133;-63
2021/11/04 02:37:08;;;;;;;4.43;2.90;;;;;;;13.19;76.84;98285.22;4975433;28;20050;-63
2021/11/04 02:39:38;;;;;;;5.65;3.20;;;;;;;13.27;76.41;98287.50;4975597;28;20061;-63
2021/11/04 02:42:13;;;;;;;5.50;3.22;;;;;;;13.29;76.11;98286.56;4958156;28;20043;-63
2021/11/04 02:44:46;;;;;;;6.95;3.20;;;;;;;13.34;76.05;98283.88;4975277;28;20517;-63
2021/11/04 02:47:15;;;;;;;7.00;3.45;;;;;;;13.39;75.83;98282.81;4975241;28;20051;-63
2021/11/04 02:49:48;;;;;;;5.28;2.95;;;;;;;13.40;75.28;98286.22;4975149;28;20065;-63
2021/11/04 02:52:21;;;;;;;6.50;3.25;;;;;;;13.56;75.18;98281.38;4975073;28;20061;-63
2021/11/04 02:54:53;;;;;;;5.35;3.00;;;;;;;13.61;74.56;98282.03;4975144;28;20129;-63
2021/11/04 02:57:27;;;;;;;5.60;3.25;;;;;;;13.63;74.20;98270.84;4975437;28;20078;-63
2021/11/04 02:59:59;;;;;;;7.82;3.35;;;;;;;13.61;74.42;98271.78;4974280;28;20142;-63
2021/11/04 03:02:35;;;;;;;5.88;3.17;;;;;;;13.62;74.11;98247.84;4975143;28;20050;-63
2021/11/04 03:05:08;;;;;;;5.20;3.13;;;;;;;13.59;73.86;98255.63;4975050;28;20158;-63
2021/11/04 03:07:41;;;;;;;6.88;3.55;;;;;;;13.55;74.10;98233.56;4974980;28;20043;-63
2021/11/04 03:10:13;;;;;;;6.80;3.53;;;;;;;13.57;73.73;98234.34;4974878;28;20134;-63
2021/11/04 03:12:44;;;;;;;5.70;2.83;;;;;;;13.61;73.96;98241.03;4975165;28;20042;-63
2021/11/04 03:15:19;;;;;;;7.00;3.20;;;;;;;13.60;74.05;98218.88;4974908;28;20133;-63
2021/11/04 03:17:55;;;;;;;6.43;3.10;;;;;;;13.58;73.95;98212.97;4975415;28;20484;-63
2021/11/04 03:20:27;;;;;;;5.82;3.20;;;;;;;13.55;74.30;98216.47;4974826;28;20042;-63
2021/11/04 03:23:01;;;;;;;5.97;3.58;;;;;;;13.57;74.32;98213.84;4975137;28;20133;-63
2021/11/04 03:25:35;;;;;;;5.07;2.60;;;;;;;13.61;74.21;98215.38;4974809;28;20050;-63
2021/11/04 03:28:07;;;;;;;8.13;3.95;;;;;;;13.62;73.86;98210.22;4975079;28;20117;-63
2021/11/04 03:30:42;;;;;;;5.80;2.78;;;;;;;13.64;73.65;98205.03;4974573;28;20105;-63
2021/11/04 03:33:15;;;;;;;5.90;3.03;;;;;;;13.69;73.54;98203.16;4974702;28;20101;-63
2021/11/04 03:35:49;;;;;;;7.30;3.45;;;;;;;13.71;73.45;98180.84;4974724;28;20134;-63
2021/11/04 03:38:21;;;;;;;5.95;2.72;;;;;;;13.70;73.36;98174.06;4974672;28;20051;-63
2021/11/04 03:40:58;;;;;;;7.13;3.10;;;;;;;13.73;73.48;98171.34;4974626;28;20046;-63
2021/11/04 03:43:33;;;;;;;4.88;2.78;;;;;;;13.75;72.91;98172.16;4974874;28;20440;-64
2021/11/04 03:46:07;;;;;;;4.63;2.83;;;;;;;13.76;73.27;98163.56;4974592;28;20085;-63
2021/11/04 03:48:42;;;;;;;4.43;2.58;;;;;;;13.76;72.76;98158.44;4974587;28;20046;-63
2021/11/04 03:51:13;;;;;;;4.90;2.53;;;;;;;13.77;72.90;98144.72;4974604;28;20051;-63
2021/11/04 03:53:46;;;;;;;6.13;2.90;;;;;;;13.78;72.62;98143.81;4974540;28;20046;-63
2021/11/04 03:56:18;;;;;;;4.65;1.50;;;;;;;13.87;72.72;98146.03;4974530;28;20055;-63
2021/11/04 03:58:51;;;;;;;5.38;2.88;;;;;;;13.91;72.68;98152.72;4974457;28;20134;-63
2021/11/04 04:01:21;;;;;;;5.72;2.78;;;;;;;13.95;72.04;98133.75;4974401;28;20047;-63
2021/11/04 04:03:54;;;;;;;4.43;2.40;;;;;;;13.99;72.60;98150.69;4974751;28;20070;-63
2021/11/04 04:06:23;;;;;;;5.78;3.10;;;;;;;14.01;72.37;98144.59;4974721;28;20121;-63
2021/11/04 04:08:56;;;;;;;6.95;3.10;;;;;;;13.96;72.73;98136.25;4974674;28;20094;-64
2021/11/04 04:11:29;;;;;;;6.95;3.25;;;;;;;14.00;72.89;98119.03;4976774;28;20046;-64
2021/11/04 04:14:02;;;;;;;8.23;3.35;;;;;;;13.96;72.53;98112.34;4978009;28;20057;-63
2021/11/04 04:16:32;;;;;;;5.97;2.97;;;;;;;13.95;73.23;98115.78;4977957;28;20456;-63
2021/11/04 04:19:04;;;;;;;;;;;;;;;13.88;73.48;98127.19;4978627;28;20074;-63
2021/11/04 04:21:34;;;;;;;5.65;3.15;;;;;;;13.79;73.77;98127.56;4977868;28;20009;-63
2021/11/04 04:24:09;;;;;;;5.70;2.75;;;;;;;13.74;74.43;98135.44;4978154;28;20097;-63
2021/11/04 04:26:39;;;;;;;6.93;3.47;;;;;;;13.62;74.76;98165.81;4978127;28;20477;-63
2021/11/04 04:29:12;;;;;;;5.57;3.17;;;;;;;13.57;75.27;98165.13;4977758;28;20054;-64
2021/11/04 04:31:44;;;;;;;5.43;2.80;;;;;;;13.50;75.67;98163.69;4976745;28;20058;-63
2021/11/04 04:34:16;;;;;;;4.93;2.70;;;;;;;13.57;75.86;98162.56;4977697;28;20070;-63
2021/11/04 04:36:52;;;;;;;6.13;2.88;;;;;;;13.55;75.86;98149.00;4977933;28;20101;-63
2021/11/04 04:39:26;;;;;;;7.20;3.20;;;;;;;13.60;75.81;98137.69;4977568;28;20050;-63
2021/11/04 04:41:55;;;;;;;4.90;2.47;;;;;;;13.58;76.04;98148.88;4977525;28;20047;-63
2021/11/04 04:44:29;;;;;;;4.07;2.70;;;;;;;13.59;76.05;98136.00;4977523;28;20070;-63
2021/11/04 04:47:05;;;;;;;5.72;2.50;;;;;;;13.58;76.47;98154.00;4977279;28;20082;-63
2021/11/04 04:49:35;;;;;;;4.82;2.40;;;;;;;13.54;76.54;98157.56;4977406;28;20098;-63
2021/11/04 04:52:05;;;;;;;6.88;2.75;;;;;;;13.49;76.75;98174.81;4977195;28;20042;-63
2021/11/04 04:54:37;;;;;;;5.85;3.03;;;;;;;13.41;77.64;98147.75;4977300;28;20078;-64
2021/11/04 04:57:10;;;;;;;5.93;3.13;;;;;;;13.39;77.72;98139.28;4977264;28;20050;-64
2021/11/04 04:59:43;;;;;;;6.00;3.22;;;;;;;13.42;78.23;98118.69;4977207;28;20042;-64
2021/11/04 05:02:12;;;;;;;6.57;3.30;;;;;;;13.36;78.31;98141.97;4977121;28;20110;-63
2021/11/04 05:04:44;;;;;;;7.28;3.92;;;;;;;13.28;78.48;98151.69;4977413;28;20053;-63
2021/11/04 05:07:18;;;;;;;6.50;3.25;;;;;;;13.26;78.49;98122.72;4977127;28;20130;-63
2021/11/04 05:09:50;;;;;;;8.38;3.65;;;;;;;13.22;78.94;98110.06;4977063;28;20065;-64
2021/11/04 05:12:26;;;;;;;5.15;2.83;;;;;;;13.21;79.15;98108.38;4976880;28;20042;-64
2021/11/04 05:15:00;;;;;;;5.22;3.10;;;;;;;13.25;79.21;98100.53;4977263;28;20499;-64
2021/11/04 05:17:34;;;;;;;6.18;3.28;;;;;;;13.29;79.32;98099.53;4976986;28;20555;-63
2021/11/04 05:20:09;;;;;;;5.70;2.63;;;;;;;13.21;79.21;98086.19;4976900;28;20125;-63
2021/11/04 05:22:41;;;;;;;5.82;2.90;;;;;;;13.23;79.64;98097.19;4975973;28;20059;-64
2021/11/04 05:25:13;;;;;;;5.53;2.72;;;;;;;13.22;79.46;98087.84;4977020;28;20061;-64
2021/11/04 05:27:48;;;;;;;5.40;2.90;;;;;;;13.30;79.70;98103.75;4977022;28;20045;-64
2021/11/04 05:30:22;;;;;;;4.22;2.53;;;;;;;13.26;79.71;98086.84;4976996;28;20441;-63
2021/11/04 05:32:52;;;;;;;5.22;2.75;;;;;;;13.24;79.97;98095.47;4976412;28;20049;-63
2021/11/04 05:35:21;;;;;;;4.72;2.38;;;;;;;13.28;80.00;98095.31;4976550;28;20110;-63
2021/11/04 05:37:50;;;;;;;5.45;2.60;;;;;;;13.37;79.61;98099.25;4976457;28;20047;-63
2021/11/04 05:40:20;;;;;;;4.75;2.55;;;;;;;13.43;79.76;98120.38;4977269;28;20050;-63
2021/11/04 05:42:52;;;;;;;4.60;2.35;;;;;;;13.48;79.66;98121.91;4976392;28;20129;-63
2021/11/04 05:45:27;;;;;;;4.32;2.67;;;;;;;13.46;78.62;98113.47;4976348;28;20074;-63
2021/11/04 05:47:59;;;;;;;7.05;3.10;;;;;;;13.43;78.44;98119.53;4976407;28;20109;-63
2021/11/04 05:50:31;;;;;;;5.57;2.67;;;;;;;13.43;78.40;98102.44;4976178;28;20065;-63
2021/11/04 05:53:04;;;;;;;5.10;2.75;;;;;;;13.38;78.19;98101.78;4976126;28;20117;-63
2021/11/04 05:55:37;;;;;;;5.05;2.72;;;;;;;13.46;78.44;98113.47;4976145;28;20047;-63
2021/11/04 05:58:09;;;;;;;4.60;2.40;;;;;;;13.48;78.02;98101.41;4976169;28;20488;-64
2021/11/04 06:00:43;;;;;;;5.55;3.03;;;;;;;13.49;77.92;98113.31;4976409;28;20129;-63
2021/11/04 06:03:16;;;;;;;7.00;2.70;;;;;;;13.53;78.17;98125.16;4976007;28;20043;-63
2021/11/04 06:05:48;;;;;;;6.93;3.80;;;;;;;13.52;77.86;98103.81;4975842;28;20074;-63
2021/11/04 06:08:17;;;;;;;5.53;2.78;;;;;;;13.53;77.97;98097.78;4975922;28;20055;-63
2021/11/04 06:10:50;;;;;;;4.63;2.67;;;;;;;13.51;78.29;98085.94;4975860;28;20070;-63
2021/11/04 06:13:22;;;;;;;5.13;3.10;;;;;;;13.47;78.45;98079.22;4976051;28;20540;-62
2021/11/04 06:15:57;;;;;;;5.28;2.83;;;;;;;13.42;78.47;98077.69;4975752;28;20146;-63
2021/11/04 06:18:26;;;;;;;5.38;2.95;;;;;;;13.38;78.70;98076.16;4975697;28;20051;-63
2021/11/04 06:20:58;;;;;;;;;;;;;;;13.40;79.05;98074.34;4976032;28;20053;-62
2021/11/04 06:23:31;;;;;;;4.05;2.70;;;;;;;13.38;79.34;98055.66;4975655;28;19933;-63
2021/11/04 06:26:00;;;;;;;4.55;2.60;;;;;;;13.39;79.93;98036.78;4975769;28;20455;-62
2021/11/04 06:28:32;;;;;;;5.20;2.67;;;;;;;13.42;79.89;98052.06;4975570;28;20043;-63
2021/11/04 06:31:04;;;;;;;4.88;2.42;;;;;;;13.43;79.73;98048.63;4974611;28;20054;-64
2021/11/04 06:33:33;;;;;;;5.30;2.95;;;;;;;13.43;79.79;98058.88;4975733;28;20055;-63
2021/11/04 06:36:08;;;;;;;5.43;2.60;;;;;;;13.47;79.96;98059.56;4958300;28;20077;-63
2021/11/04 06:38:39;;;;;;;5.18;2.50;;;;;;;13.50;80.01;98058.63;4975690;28;20076;-63
2021/11/04 06:41:08;;;;;;;3.28;1.85;;;;;;;13.53;80.33;98046.53;4975621;28;20536;-63
2021/11/04 06:43:41;;;;;;;5.18;2.70;;;;;;;13.58;80.19;98062.53;4975184;28;20134;-63
2021/11/04 06:46:16;;;;;;;4.88;2.50;;;;;;;13.60;80.49;98034.31;4975234;28;20138;-62
2021/11/04 06:48:52;;;;;;;4.65;2.40;;;;;;;13.66;80.57;98041.75;4975155;28;20050;-62
2021/11/04 06:51:29;;;;;;;3.65;2.08;;;;;;;13.71;80.83;98053.50;4975225;28;20130;-63
2021/11/04 06:54:03;;;;;;;4.28;1.83;;;;;;;13.77;80.37;98045.53;4975020;28;20043;-63
2021/11/04 06:56:41;;;;;;;3.17;1.67;;;;;;;13.85;80.67;98045.25;4975392;28;20117;-63
2021/11/04 06:59:19;;;;;;;4.68;2.10;;;;;;;13.89;80.54;98064.75;4975099;28;20059;-62
2021/11/04 07:01:54;;;;;;;3.50;2.03;;;;;;;13.95;80.51;98031.16;4974995;28;20054;-63
2021/11/04 07:04:33;;;;;;;2.53;1.67;;;;;;;13.98;80.44;98042.13;4975355;28;20046;-62
2021/11/04 07:07:07;;;;;;;3.55;1.77;;;;;;;13.99;80.49;98043.78;4975015;28;20511;-63
2021/11/04 07:09:43;;;;;;;2.70;1.40;;;;;;;14.07;80.02;98030.66;4974902;28;20070;-63
2021/11/04 07:12:15;;;;;;;5.60;1.88;;;;;;;14.13;80.10;98025.28;4975209;28;20547;-63
2021/11/04 07:14:48;;;;;;;3.65;1.67;;;;;;;14.22;79.72;98045.44;4974701;28;20039;-63
2021/11/04 07:17:25;;;;;;;4.38;1.80;;;;;;;14.22;79.39;98030.03;4974767;28;20047;-63
2021/11/04 07:19:57;;;;;;;2.53;1.40;;;;;;;14.28;79.62;98006.66;4974778;28;20061;-63
2021/11/04 07:22:36;;;;;;;3.00;1.50;;;;;;;14.29;79.33;97980.13;4975058;28;20051;-63
2021/11/04 07:25:11;;;;;;;3.20;1.50;;;;;;;14.29;79.21;97995.50;4975119;28;20054;-63
2021/11/04 07:28:16;;;;;;;3.10;1.63;;;;;;;14.33;79.38;98007.34;4974658;28;20129;-62
2021/11/04 07:30:46;;;;;;;2.40;1.33;;;;;;;14.34;79.04;97995.34;4915112;29;20131;-63
2021/11/04 07:33:21;;;;;;;2.70;1.40;;;;;;;14.36;78.96;97976.41;4915251;29;20079;-63
2021/11/04 07:35:53;;;;;;;1.88;1.30;;;;;;;14.42;78.09;97988.16;4915275;29;20127;-63
2021/11/04 07:38:23;;;;;;;2.00;1.10;;;;;;;14.57;78.14;98008.84;4915290;29;20072;-63
2021/11/04 07:41:07;;;;;;;2.33;1.45;;;;;;;14.75;76.97;98005.50;4840154;29;20050;-64
2021/11/04 07:43:37;;;;;;;3.78;1.50;;;;;;;14.96;76.28;98003.69;4840433;29;20148;-63
2021/11/04 07:46:06;;;;;;;2.40;1.40;;;;;;;15.08;75.52;98012.56;4842283;29;20046;-63
2021/11/04 07:48:37;;;;;;;2.50;1.48;;;;;;;15.18;74.86;98011.25;4864547;29;20291;-63
2021/11/04 07:51:06;;;;;;;1.20;0.75;;;;;;;15.24;74.25;97990.41;4899993;29;20097;-63
2021/11/04 07:53:36;;;;;;;2.90;1.10;;;;;;;15.43;73.75;97993.75;4900024;29;20135;-63
2021/11/04 07:56:06;;;;;;;2.60;1.30;;;;;;;15.48;73.45;97999.56;4899816;29;20060;-63
2021/11/04 07:58:39;;;;;;;1.63;1.02;;;;;;;15.38;73.31;97995.72;4899783;29;20506;-64
2021/11/04 08:01:08;;;;;;;1.90;1.25;;;;;;;15.36;73.68;97985.53;4899796;29;20053;-63
2021/11/04 08:03:41;;;;;;;1.95;0.88;;;;;;;15.31;73.73;98014.91;4899622;29;20058;-63
2021/11/04 08:06:10;;;;;;;2.08;0.98;;;;;;;15.24;73.63;98032.34;4899706;29;20055;-63
2021/11/04 08:08:40;;;;;;;2.03;1.00;;;;;;;15.19;73.93;98005.19;4899667;29;20051;-63
2021/11/04 08:11:09;;;;;;;1.65;1.00;;;;;;;15.01;74.74;98006.03;4899710;29;20060;-63
2021/11/04 08:13:39;;;;;;;1.52;0.90;;;;;;;15.13;74.73;98026.03;4899550;29;20463;-63
2021/11/04 08:16:08;;;;;;;2.05;1.00;;;;;;;14.92;75.24;98006.47;4899453;29;20053;-63
2021/11/04 08:18:39;;;;;;;2.13;1.20;;;;;;;15.00;75.96;98030.91;4942776;28;20039;-63
2021/11/04 08:21:09;;;;;;;1.65;1.10;;;;;;;14.95;76.06;98037.16;4977861;28;20105;-63
2021/11/04 08:23:38;;;;;;;2.50;1.38;;;;;;;14.82;76.29;98046.28;4977542;28;20138;-63
2021/11/04 08:26:07;;;;;;;2.38;1.30;;;;;;;14.78;76.80;98045.59;4977898;28;20050;-63
2021/11/04 08:28:37;;;;;;;3.95;1.70;;;;;;;14.70;77.23;98063.91;4977650;28;20054;-63
2021/11/04 08:31:07;;;;;;;2.47;1.50;;;;;;;14.64;77.06;98066.75;4977196;28;20102;-63
2021/11/04 08:33:36;;;;;;;2.75;1.60;;;;;;;14.62;77.85;98055.69;4977629;28;20047;-63
2021/11/04 08:36:07;;;;;;;2.50;1.55;;;;;;;14.66;78.18;98056.41;4977559;28;20133;-63
2021/11/04 08:38:37;;;;;;;3.42;1.88;;;;;;;14.73;78.27;98074.03;4978111;28;20497;-63
2021/11/04 08:41:06;;;;;;;3.92;1.63;;;;;;;14.84;78.40;98065.03;4977204;28;20057;-62
2021/11/04 08:43:35;;;;;;;2.67;1.60;;;;;;;14.84;78.46;98076.16;4977135;28;20039;-63
2021/11/04 08:46:06;;;;;;;3.50;1.88;;;;;;;14.68;78.34;98064.88;4977578;28;20050;-62
2021/11/04 08:48:37;;;;;;;3.67;1.90;;;;;;;14.73;78.19;98099.72;4977118;28;20098;-63
2021/11/04 08:51:08;;;;;;;4.45;2.42;;;;;;;14.66;78.98;98113.72;4977099;28;20102;-63
2021/11/04 08:53:37;;;;;;;3.45;1.80;;;;;;;14.64;79.19;98104.41;4976922;28;20057;-63
2021/11/04 08:56:08;;;;;;;4.15;2.60;;;;;;;14.67;79.62;98100.00;4977108;28;20058;-63
2021/11/04 08:58:38;;;;;;;4.93;2.58;;;;;;;14.70;79.58;98110.16;4975968;28;20046;-63
2021/11/04 09:01:10;;;;;;;4.30;2.70;;;;;;;14.77;79.43;98106.41;4977508;28;20058;-63
2021/11/04 09:03:40;;;;;;;4.45;2.50;;;;;;;14.78;79.26;98092.66;4976995;28;20078;-63
2021/11/04 09:06:11;;;;;;;4.45;2.65;;;;;;;14.75;79.40;98115.91;4976787;28;20050;-63
2021/11/04 09:08:40;;;;;;;5.78;2.97;;;;;;;14.69;79.35;98112.75;4976725;28;20133;-63
2021/11/04 09:11:11;;;;;;;4.07;2.72;;;;;;;14.67;79.66;98120.53;4976677;28;20062;-63
2021/11/04 09:13:42;;;;;;;3.65;2.22;;;;;;;14.64;79.51;98117.25;4976932;28;20073;-62
2021/11/04 09:16:14;;;;;;;3.85;2.60;;;;;;;14.76;79.73;98125.28;4977028;28;20382;-63
2021/11/04 09:18:46;;;;;;;3.58;1.98;;;;;;;14.89;79.31;98115.31;4976763;28;20050;-62
2021/11/04 09:21:20;;;;;;;3.92;2.00;;;;;;;14.97;79.15;98113.22;4976833;28;20055;-63
2021/11/04 09:23:50;;;;;;;3.30;2.10;;;;;;;15.04;79.36;98113.81;4976690;28;20046;-63
2021/11/04 09:26:20;;;;;;;4.05;2.33;;;;;;;15.12;78.77;98111.72;4976602;28;20050;-63
2021/11/04 09:28:52;;;;;;;4.38;1.88;;;;;;;15.19;78.40;98108.00;4976678;28;20053;-62
2021/11/04 09:31:22;;;;;;;2.88;1.67;;;;;;;15.26;78.29;98119.69;4975713;28;20055;-63
2021/11/04 09:33:58;;;;;;;3.00;1.60;;;;;;;15.25;77.80;98100.03;4976529;28;20051;-63
2021/11/04 09:36:33;;;;;;;3.40;1.85;;;;;;;15.25;77.70;98102.59;4976466;28;20043;-63
2021/11/04 09:39:04;;;;;;;4.13;2.10;;;;;;;15.25;77.79;98098.28;4976173;28;20042;-63
2021/11/04 09:41:33;;;;;;;4.75;2.00;;;;;;;15.28;77.86;98107.59;4976084;28;20511;-63
2021/11/04 09:44:04;;;;;;;2.70;1.70;;;;;;;15.31;78.01;98133.16;4976531;28;20058;-63
2021/11/04 09:46:37;;;;;;;3.55;1.70;;;;;;;15.28;78.07;98136.69;4976374;28;20055;-63
2021/11/04 09:49:07;;;;;;;4.47;2.15;;;;;;;15.22;77.81;98146.41;4976018;28;20042;-63
2021/11/04 09:51:44;;;;;;;3.00;1.98;;;;;;;15.12;78.22;98152.84;4976323;28;20055;-63
2021/11/04 09:54:14;;;;;;;3.20;1.80;;;;;;;15.12;78.26;98168.28;4976095;28;20555;-63
2021/11/04 09:56:46;;;;;;;3.38;1.85;;;;;;;15.12;78.29;98151.13;4976104;28;20066;-62
2021/11/04 09:59:16;;;;;;;4.63;1.90;;;;;;;15.14;78.23;98145.94;4976310;28;20134;-62
2021/11/04 10:01:50;;;;;;;2.90;1.75;;;;;;;15.19;78.43;98149.09;4976004;28;20130;-63
2021/11/04 10:04:33;;;;;;;3.58;2.05;;;;;;;15.22;79.00;98146.41;4958816;28;20047;-63
2021/11/04 10:07:05;;;;;;;5.65;2.22;;;;;;;15.14;79.47;98123.63;4975864;28;20070;-63
2021/11/04 10:09:38;;;;;;;4.15;1.88;;;;;;;15.40;79.67;98153.31;4975616;28;20043;-63
2021/11/04 10:12:11;;;;;;;4.13;2.10;;;;;;;15.50;79.04;98152.03;4975836;28;20527;-64
2021/11/04 10:14:44;;;;;;;4.35;2.00;;;;;;;15.58;79.09;98155.09;4975599;28;20049;-63
2021/11/04 10:17:28;;;;;;;4.30;2.40;;;;;;;15.44;78.89;98149.72;4976022;28;20153;-63
2021/11/04 10:19:58;;;;;;;4.65;2.33;;;;;;;15.20;79.14;98122.53;4976015;28;20050;-63
2021/11/04 10:22:32;;;;;;;3.55;2.45;;;;;;;15.19;79.73;98143.97;4975499;28;20098;-63
2021/11/04 10:25:01;;;;;;;4.45;2.58;;;;;;;15.15;79.81;98152.72;4975443;28;20137;-63
2021/11/04 10:27:35;;;;;;;4.68;2.75;;;;;;;15.17;80.22;98140.63;4975850;28;20600;-63
2021/11/04 10:30:06;;;;;;;3.90;2.50;;;;;;;15.20;80.27;98150.78;4975513;28;20042;-63
2021/11/04 10:32:39;;;;;;;5.30;2.38;;;;;;;15.23;79.90;98136.09;4974803;28;20062;-63
2021/11/04 10:35:10;;;;;;;3.63;2.30;;;;;;;15.41;80.11;98139.56;4975649;28;20401;-63
2021/11/04 10:37:43;;;;;;;2.58;1.73;;;;;;;15.53;79.35;98139.03;4975384;28;20053;-63
2021/11/04 10:40:18;;;;;;;4.25;2.38;;;;;;;15.57;79.35;98157.75;4975564;28;20248;-63
2021/11/04 10:42:55;;;;;;;3.10;1.92;;;;;;;15.62;79.00;98186.66;4975652;28;20147;-63
2021/11/04 10:45:29;;;;;;;3.58;2.30;;;;;;;15.59;79.10;98199.66;4975281;28;20051;-63
2021/11/04 10:48:20;;;;;;;4.18;2.58;;;;;;;15.53;79.33;98208.47;4975605;28;20405;-63
2021/11/04 10:50:52;;;;;;;5.32;2.85;;;;;;;15.51;79.58;98223.13;4975451;28;20456;-63
2021/11/04 10:53:25;;;;;;;4.65;2.83;;;;;;;15.52;80.00;98229.94;4975163;28;20046;-63
2021/11/04 10:55:55;;;;;;;5.03;3.10;;;;;;;15.46;80.06;98225.06;4975108;28;20049;-63
2021/11/04 10:58:33;;;;;;;4.13;2.55;;;;;;;15.39;80.15;98223.63;4975070;28;20046;-63
2021/11/04 11:01:05;;;;;;;5.40;3.55;;;;;;;15.40;80.19;98235.59;4975070;28;20054;-63
2021/11/04 11:03:35;;;;;;;6.28;3.70;;;;;;;15.41;80.23;98252.69;4975020;28;20050;-63
2021/11/04 11:06:08;;;;;;;6.50;3.83;;;;;;;15.46;80.60;98244.78;4975199;28;20641;-63
2021/11/04 11:08:40;;;;;;;9.07;5.43;;;;;;;15.50;80.37;98244.59;4975174;28;20518;-63
2021/11/04 11:11:14;;;;;;;9.07;4.25;;;;;;;15.55;80.45;98242.66;4974867;28;20047;-63
2021/11/04 11:13:47;;;;;;;4.65;2.90;;;;;;;15.71;79.80;98230.81;4974830;28;20080;-63
2021/11/04 11:16:20;;;;;;;4.32;2.30;;;;;;;15.99;79.51;98249.25;4974753;28;20043;-63
2021/11/04 11:18:49;;;;;;;3.67;2.20;;;;;;;16.09;78.21;98217.03;4975083;28;20153;-63
2021/11/04 11:21:21;;;;;;;3.85;2.40;;;;;;;16.20;77.34;98207.94;4974153;28;20045;-63
2021/11/04 11:23:53;;;;;;;5.07;2.53;;;;;;;16.20;76.79;98210.53;4974780;28;20059;-63
2021/11/04 11:26:29;;;;;;;3.05;1.80;;;;;;;16.23;76.45;98215.53;4975086;28;20107;-63
2021/11/04 11:29:05;;;;;;;5.13;2.25;;;;;;;16.28;75.89;98211.00;4974774;28;20101;-63
2021/11/04 11:31:46;;;;;;;3.70;2.13;;;;;;;16.23;75.91;98208.66;4974489;28;20445;-63
2021/11/04 11:34:22;;;;;;;3.55;2.35;;;;;;;16.18;75.99;98256.09;4974564;28;20051;-63
2021/11/04 11:37:13;;;;;;;2.90;1.60;;;;;;;15.87;75.82;98329.56;4974457;28;20053;-62
2021/11/04 11:40:12;;;;;;;2.83;1.30;;;;;;;14.96;74.34;98301.69;4974353;28;20050;-63
2021/11/04 11:42:57;;;;;;;1.95;1.20;;;;;;;14.39;73.80;98330.50;4974783;28;20067;-63
2021/11/04 11:45:27;;;;;;;2.67;0.95;;;;;;;14.07;73.72;98333.38;4973114;28;20219;-63
2021/11/04 11:47:56;;;;;;;2.67;1.10;;;;;;;13.95;73.82;98354.34;4974389;28;20079;-63
2021/11/04 11:50:31;;;;;;;1.98;1.10;;;;;;;14.22;72.75;98355.91;4974244;28;20046;-64
2021/11/04 11:53:03;;;;;;;1.35;0.90;;;;;;;14.52;71.41;98367.63;4974710;28;20405;-63
2021/11/04 11:55:40;;;;;;;1.00;0.73;;;;;;;14.61;69.72;98377.53;4974201;28;20109;-63
2021/11/04 11:58:31;;;;;;;2.00;0.98;;;;;;;14.51;68.59;98376.25;4974640;28;20050;-63
2021/11/04 12:01:12;;;;;;;0.95;0.65;;;;;;;14.20;68.35;98370.53;4974423;28;20059;-63